ARG2551 SKRG-MROC
Flight info
| Callsign | ARG2551 |
|---|---|
| Flight time | 0h 53m |
| Altitude | 36000 |
| Route | TBG DCT ISEBA CUARE4I |
| Aircraft | B737/M-SDE2E3FGHIRWXY/LB1 |
Departure
| Time | 2026-04-28 01:59 |
|---|---|
| Airport | Jose Maria Córdova International Airport (SKRG) |
Arrival
| Time | 2026-04-28 02:52 |
|---|---|
| Airport | Juan Santamaría International Airport (MROC) |
| Time | Latitude | Longitude | Altitude | Speed | Heading |
|---|---|---|---|---|---|
| 2026-04-28 01:58 | 6.38306 | -75.42379 | 12041 ft | 361 kts | 1° |
| 2026-04-28 01:59 | 6.40816 | -75.42558 | 12775 ft | 365 kts | 346° |
| 2026-04-28 01:59 | 6.43125 | -75.43625 | 13508 ft | 370 kts | 324° |
| 2026-04-28 01:59 | 6.44939 | -75.45463 | 14223 ft | 374 kts | 304° |
| 2026-04-28 01:59 | 6.46270 | -75.47684 | 14939 ft | 378 kts | 300° |
| 2026-04-28 02:00 | 6.47560 | -75.50012 | 15583 ft | 383 kts | 299° |
| 2026-04-28 02:00 | 6.48868 | -75.52360 | 15879 ft | 386 kts | 299° |
| 2026-04-28 02:00 | 6.50207 | -75.54708 | 15877 ft | 387 kts | 300° |
| 2026-04-28 02:00 | 6.51556 | -75.57043 | 15888 ft | 387 kts | 300° |
| 2026-04-28 02:01 | 6.52927 | -75.59408 | 16333 ft | 392 kts | 300° |
| 2026-04-28 02:01 | 6.54306 | -75.61787 | 17069 ft | 394 kts | 300° |
| 2026-04-28 02:01 | 6.55692 | -75.64182 | 17719 ft | 397 kts | 300° |
| 2026-04-28 02:01 | 6.57092 | -75.66603 | 18280 ft | 403 kts | 300° |
| 2026-04-28 02:02 | 6.58030 | -75.68225 | 18662 ft | 406 kts | 300° |
| 2026-04-28 02:02 | 6.59939 | -75.71527 | 19430 ft | 410 kts | 300° |
| 2026-04-28 02:02 | 6.60892 | -75.73176 | 19783 ft | 414 kts | 300° |
| 2026-04-28 02:02 | 6.62804 | -75.76511 | 20478 ft | 417 kts | 299° |
| 2026-04-28 02:03 | 6.63776 | -75.78227 | 20797 ft | 420 kts | 300° |
| 2026-04-28 02:03 | 6.65256 | -75.80790 | 21298 ft | 424 kts | 300° |
| 2026-04-28 02:03 | 6.66733 | -75.83323 | 21875 ft | 426 kts | 300° |
| 2026-04-28 02:03 | 6.68238 | -75.85903 | 22293 ft | 429 kts | 300° |
| 2026-04-28 02:04 | 6.69748 | -75.88510 | 22647 ft | 434 kts | 300° |
| 2026-04-28 02:04 | 6.71277 | -75.91160 | 23048 ft | 438 kts | 299° |
| 2026-04-28 02:04 | 6.73306 | -75.94677 | 23632 ft | 440 kts | 299° |
| 2026-04-28 02:04 | 6.74347 | -75.96484 | 23894 ft | 442 kts | 299° |
| 2026-04-28 02:05 | 6.75878 | -75.99142 | 24247 ft | 446 kts | 299° |
| 2026-04-28 02:05 | 6.77441 | -76.01858 | 24620 ft | 448 kts | 299° |
| 2026-04-28 02:05 | 6.79008 | -76.04584 | 24983 ft | 450 kts | 299° |
| 2026-04-28 02:05 | 6.80583 | -76.07324 | 25345 ft | 452 kts | 299° |
| 2026-04-28 02:06 | 6.82163 | -76.10075 | 25682 ft | 455 kts | 299° |
| 2026-04-28 02:06 | 6.83754 | -76.12843 | 26009 ft | 457 kts | 299° |
| 2026-04-28 02:06 | 6.85333 | -76.15583 | 26340 ft | 459 kts | 299° |
| 2026-04-28 02:06 | 6.86932 | -76.18374 | 26616 ft | 462 kts | 299° |
| 2026-04-28 02:07 | 6.88544 | -76.21186 | 26921 ft | 464 kts | 298° |
| 2026-04-28 02:07 | 6.90167 | -76.24015 | 27197 ft | 466 kts | 299° |
| 2026-04-28 02:07 | 6.91795 | -76.26851 | 27492 ft | 468 kts | 299° |
| 2026-04-28 02:07 | 6.93426 | -76.29693 | 27772 ft | 470 kts | 298° |
| 2026-04-28 02:08 | 6.95066 | -76.32550 | 28036 ft | 472 kts | 298° |
| 2026-04-28 02:08 | 6.96710 | -76.35413 | 28302 ft | 474 kts | 298° |
| 2026-04-28 02:08 | 6.98362 | -76.38292 | 28562 ft | 476 kts | 298° |
| 2026-04-28 02:08 | 7.00020 | -76.41182 | 28775 ft | 478 kts | 298° |
| 2026-04-28 02:09 | 7.01686 | -76.44085 | 29014 ft | 480 kts | 298° |
| 2026-04-28 02:09 | 7.03338 | -76.46968 | 29239 ft | 481 kts | 298° |
| 2026-04-28 02:09 | 7.05012 | -76.49888 | 29455 ft | 482 kts | 298° |
| 2026-04-28 02:09 | 7.06690 | -76.52815 | 29590 ft | 485 kts | 298° |
| 2026-04-28 02:10 | 7.08376 | -76.55761 | 29747 ft | 486 kts | 298° |
| 2026-04-28 02:10 | 7.10074 | -76.58724 | 29875 ft | 488 kts | 298° |
| 2026-04-28 02:10 | 7.11772 | -76.61689 | 30088 ft | 490 kts | 298° |
| 2026-04-28 02:10 | 7.13479 | -76.64667 | 30349 ft | 490 kts | 298° |
| 2026-04-28 02:11 | 7.15178 | -76.67633 | 30670 ft | 488 kts | 298° |
| 2026-04-28 02:11 | 7.16870 | -76.70588 | 31027 ft | 486 kts | 298° |
| 2026-04-28 02:11 | 7.18555 | -76.73530 | 31406 ft | 484 kts | 298° |
| 2026-04-28 02:11 | 7.20234 | -76.76464 | 31775 ft | 482 kts | 298° |
| 2026-04-28 02:12 | 7.21907 | -76.79387 | 32141 ft | 481 kts | 298° |
| 2026-04-28 02:12 | 7.23575 | -76.82302 | 32509 ft | 480 kts | 298° |
| 2026-04-28 02:12 | 7.25238 | -76.85211 | 32885 ft | 478 kts | 297° |
| 2026-04-28 02:12 | 7.26876 | -76.88075 | 33278 ft | 476 kts | 297° |
| 2026-04-28 02:13 | 7.28527 | -76.90961 | 33684 ft | 474 kts | 297° |
| 2026-04-28 02:13 | 7.30170 | -76.93835 | 34046 ft | 473 kts | 297° |
| 2026-04-28 02:13 | 7.31809 | -76.96705 | 34426 ft | 471 kts | 297° |
| 2026-04-28 02:13 | 7.33438 | -76.99554 | 34833 ft | 469 kts | 297° |
| 2026-04-28 02:14 | 7.35066 | -77.02403 | 35224 ft | 467 kts | 297° |
| 2026-04-28 02:14 | 7.36684 | -77.05235 | 35576 ft | 465 kts | 297° |
| 2026-04-28 02:14 | 7.38298 | -77.08061 | 35897 ft | 464 kts | 297° |
| 2026-04-28 02:14 | 7.39913 | -77.10891 | 35915 ft | 467 kts | 297° |
| 2026-04-28 02:15 | 7.44729 | -77.19335 | 35944 ft | 460 kts | 297° |
| 2026-04-28 02:16 | 7.47915 | -77.24927 | 35931 ft | 459 kts | 297° |
| 2026-04-28 02:16 | 7.51084 | -77.30473 | 35936 ft | 458 kts | 297° |
| 2026-04-28 02:17 | 7.54274 | -77.36064 | 35941 ft | 460 kts | 297° |
| 2026-04-28 02:17 | 7.57469 | -77.41670 | 35943 ft | 462 kts | 297° |
| 2026-04-28 02:18 | 7.60660 | -77.47270 | 35938 ft | 465 kts | 297° |
| 2026-04-28 02:18 | 7.63893 | -77.52944 | 35934 ft | 467 kts | 297° |
| 2026-04-28 02:19 | 7.67129 | -77.58631 | 35944 ft | 468 kts | 297° |
| 2026-04-28 02:19 | 7.70378 | -77.64342 | 35935 ft | 470 kts | 297° |
| 2026-04-28 02:20 | 7.73616 | -77.70033 | 35939 ft | 470 kts | 297° |
| 2026-04-28 02:20 | 7.76868 | -77.75752 | 35936 ft | 471 kts | 297° |
| 2026-04-28 02:21 | 7.80125 | -77.81479 | 35932 ft | 470 kts | 297° |
| 2026-04-28 02:21 | 7.83372 | -77.87196 | 35933 ft | 469 kts | 297° |
| 2026-04-28 02:22 | 7.86619 | -77.92912 | 35931 ft | 469 kts | 297° |
| 2026-04-28 02:22 | 7.89841 | -77.98587 | 35936 ft | 469 kts | 297° |
| 2026-04-28 02:23 | 7.93087 | -78.04305 | 35939 ft | 469 kts | 297° |
| 2026-04-28 02:23 | 7.96322 | -78.10011 | 35933 ft | 469 kts | 297° |
| 2026-04-28 02:24 | 7.99565 | -78.15730 | 35942 ft | 469 kts | 297° |
| 2026-04-28 02:24 | 8.09186 | -78.32706 | 35930 ft | 468 kts | 296° |
| 2026-04-28 02:25 | 8.15657 | -78.44136 | 35937 ft | 467 kts | 296° |
| 2026-04-28 02:25 | 8.22103 | -78.55532 | 35935 ft | 466 kts | 297° |
| 2026-04-28 02:26 | 8.28509 | -78.66870 | 35937 ft | 465 kts | 297° |
| 2026-04-28 02:26 | 8.34894 | -78.78179 | 35934 ft | 464 kts | 296° |
| 2026-04-28 02:27 | 8.41271 | -78.89481 | 35936 ft | 463 kts | 296° |
| 2026-04-28 02:27 | 8.47648 | -79.00792 | 35914 ft | 462 kts | 297° |
| 2026-04-28 02:28 | 8.53998 | -79.12074 | 35919 ft | 461 kts | 297° |
| 2026-04-28 02:28 | 8.60340 | -79.23334 | 35918 ft | 459 kts | 297° |
| 2026-04-28 02:29 | 8.66413 | -79.34137 | 35927 ft | 458 kts | 297° |
| 2026-04-28 02:29 | 8.69556 | -79.39731 | 35911 ft | 457 kts | 297° |
| 2026-04-28 02:30 | 8.71863 | -79.43839 | 35917 ft | 457 kts | 297° |
| 2026-04-28 02:30 | 8.75006 | -79.49437 | 35914 ft | 457 kts | 297° |
| 2026-04-28 02:31 | 8.78101 | -79.55037 | 35914 ft | 455 kts | 293° |
| 2026-04-28 02:31 | 8.80067 | -79.61062 | 35926 ft | 450 kts | 281° |
| 2026-04-28 02:32 | 8.81440 | -79.67197 | 35909 ft | 450 kts | 280° |
| 2026-04-28 02:32 | 8.82818 | -79.73385 | 35908 ft | 450 kts | 280° |
| 2026-04-28 02:33 | 8.84227 | -79.79556 | 35906 ft | 451 kts | 281° |
| 2026-04-28 02:33 | 8.85656 | -79.85737 | 35912 ft | 451 kts | 281° |
| 2026-04-28 02:34 | 8.88141 | -79.96454 | 35896 ft | 451 kts | 281° |
| 2026-04-28 02:34 | 8.91002 | -80.08827 | 35892 ft | 451 kts | 281° |
| 2026-04-28 02:35 | 8.93841 | -80.21126 | 35898 ft | 451 kts | 281° |
| 2026-04-28 02:35 | 8.96688 | -80.33477 | 35889 ft | 450 kts | 281° |
| 2026-04-28 02:36 | 8.99525 | -80.45805 | 35884 ft | 450 kts | 281° |
| 2026-04-28 02:36 | 9.04774 | -80.68659 | 35892 ft | 448 kts | 280° |
| 2026-04-28 02:37 | 9.10398 | -80.93236 | 35860 ft | 448 kts | 280° |
| 2026-04-28 02:37 | 9.15978 | -81.17690 | 35884 ft | 447 kts | 280° |
| 2026-04-28 02:38 | 9.21563 | -81.42253 | 35885 ft | 447 kts | 280° |
| 2026-04-28 02:38 | 9.27129 | -81.66806 | 35895 ft | 447 kts | 280° |
| 2026-04-28 02:39 | 9.32670 | -81.91337 | 35901 ft | 447 kts | 279° |
| 2026-04-28 02:39 | 9.38168 | -82.15758 | 35905 ft | 447 kts | 279° |
| 2026-04-28 02:40 | 9.43680 | -82.40324 | 35910 ft | 446 kts | 279° |
| 2026-04-28 02:40 | 9.49166 | -82.64857 | 35927 ft | 446 kts | 279° |
| 2026-04-28 02:41 | 9.54719 | -82.89407 | 35935 ft | 447 kts | 282° |
| 2026-04-28 02:41 | 9.58585 | -83.01451 | 34915 ft | 452 kts | 285° |
| 2026-04-28 02:41 | 9.62532 | -83.13444 | 31442 ft | 456 kts | 284° |
| 2026-04-28 02:41 | 9.66354 | -83.25536 | 28646 ft | 443 kts | 284° |
| 2026-04-28 02:42 | 9.70050 | -83.37239 | 25987 ft | 428 kts | 285° |
| 2026-04-28 02:42 | 9.73637 | -83.48578 | 23346 ft | 415 kts | 287° |
| 2026-04-28 02:42 | 9.74874 | -83.59852 | 20599 ft | 402 kts | 262° |
| 2026-04-28 02:42 | 9.73785 | -83.71029 | 17897 ft | 389 kts | 266° |
| 2026-04-28 02:43 | 9.73088 | -83.81578 | 16200 ft | 353 kts | 266° |
| 2026-04-28 02:43 | 9.72525 | -83.89124 | 15285 ft | 326 kts | 266° |
| 2026-04-28 02:43 | 9.72346 | -83.91386 | 14904 ft | 316 kts | 266° |
| 2026-04-28 02:43 | 9.72182 | -83.93576 | 14488 ft | 307 kts | 269° |
| 2026-04-28 02:44 | 9.72564 | -83.95663 | 13718 ft | 306 kts | 298° |
| 2026-04-28 02:44 | 9.73932 | -83.97311 | 13044 ft | 306 kts | 323° |
| 2026-04-28 02:44 | 9.75764 | -83.98314 | 12630 ft | 296 kts | 342° |
| 2026-04-28 02:44 | 9.77705 | -83.98866 | 12286 ft | 282 kts | 346° |
| 2026-04-28 02:45 | 9.79651 | -83.99350 | 11110 ft | 294 kts | 346° |
| 2026-04-28 02:45 | 9.81651 | -83.99845 | 10012 ft | 296 kts | 346° |
| 2026-04-28 02:45 | 9.83656 | -84.00358 | 8883 ft | 298 kts | 346° |
| 2026-04-28 02:45 | 9.85667 | -84.00883 | 7896 ft | 296 kts | 346° |
| 2026-04-28 02:46 | 9.87546 | -84.01378 | 7676 ft | 268 kts | 346° |
| 2026-04-28 02:46 | 9.89238 | -84.01854 | 7728 ft | 232 kts | 339° |
| 2026-04-28 02:46 | 9.90506 | -84.02723 | 7564 ft | 211 kts | 314° |
| 2026-04-28 02:46 | 9.91322 | -84.03834 | 7420 ft | 184 kts | 302° |
| 2026-04-28 02:47 | 9.91951 | -84.04876 | 7228 ft | 158 kts | 301° |
| 2026-04-28 02:47 | 9.92496 | -84.05787 | 6836 ft | 148 kts | 301° |
| 2026-04-28 02:47 | 9.93025 | -84.06664 | 6467 ft | 148 kts | 302° |
| 2026-04-28 02:47 | 9.93569 | -84.07560 | 6443 ft | 149 kts | 302° |
| 2026-04-28 02:48 | 9.94115 | -84.08449 | 6383 ft | 148 kts | 305° |
| 2026-04-28 02:48 | 9.94796 | -84.09227 | 6213 ft | 153 kts | 320° |
| 2026-04-28 02:48 | 9.95731 | -84.09814 | 5590 ft | 159 kts | 338° |
| 2026-04-28 02:48 | 9.96786 | -84.10096 | 5093 ft | 152 kts | 355° |
| 2026-04-28 02:49 | 9.97753 | -84.10082 | 4974 ft | 130 kts | 8° |
| 2026-04-28 02:49 | 9.98703 | -84.10083 | 5026 ft | 151 kts | 355° |
| 2026-04-28 02:49 | 9.99690 | -84.10403 | 4914 ft | 151 kts | 334° |
| 2026-04-28 02:49 | 10.00553 | -84.11044 | 4835 ft | 158 kts | 317° |
| 2026-04-28 02:50 | 10.01229 | -84.11917 | 4701 ft | 157 kts | 301° |
| 2026-04-28 02:50 | 10.01648 | -84.12939 | 4555 ft | 157 kts | 285° |
| 2026-04-28 02:50 | 10.01766 | -84.14038 | 4417 ft | 159 kts | 265° |
| 2026-04-28 02:50 | 10.01529 | -84.15158 | 4235 ft | 164 kts | 250° |
| 2026-04-28 02:51 | 10.01126 | -84.16247 | 4083 ft | 166 kts | 247° |
| 2026-04-28 02:51 | 10.00826 | -84.16950 | 3906 ft | 161 kts | 248° |
| 2026-04-28 02:51 | 10.00449 | -84.18016 | 3505 ft | 158 kts | 252° |
| 2026-04-28 02:51 | 10.00076 | -84.19041 | 3225 ft | 152 kts | 250° |
| 2026-04-28 02:52 | 9.99710 | -84.20031 | 3044 ft | 146 kts | 249° |
| 2026-04-28 02:52 | 9.99269 | -84.21205 | 2988 ft | 116 kts | 250° |
| 2026-04-28 02:52 | 9.99101 | -84.21655 | 2970 ft | 86 kts | 249° |
| 2026-04-28 02:52 | 9.98950 | -84.22066 | 2953 ft | 29 kts | 255° |
| 2026-04-28 02:53 | 9.98972 | -84.22155 | 2952 ft | 11 kts | 321° |
| 2026-04-28 02:53 | 9.99041 | -84.22182 | 2952 ft | 11 kts | 12° |
| 2026-04-28 02:53 | 9.99086 | -84.22124 | 2944 ft | 11 kts | 69° |
| 2026-04-28 02:53 | 9.99108 | -84.22053 | 2948 ft | 10 kts | 80° |
| 2026-04-28 02:54 | 9.99101 | -84.21982 | 2949 ft | 10 kts | 98° |
| 2026-04-28 02:54 | 9.99107 | -84.21912 | 2962 ft | 10 kts | 78° |
| 2026-04-28 02:54 | 9.99129 | -84.21848 | 2964 ft | 10 kts | 69° |
| 2026-04-28 02:54 | 9.99153 | -84.21786 | 2966 ft | 9 kts | 69° |
| 2026-04-28 02:55 | 9.99175 | -84.21726 | 2969 ft | 9 kts | 69° |
| 2026-04-28 02:55 | 9.99197 | -84.21667 | 2971 ft | 9 kts | 69° |
| 2026-04-28 02:55 | 9.99219 | -84.21610 | 2974 ft | 9 kts | 69° |
| 2026-04-28 02:55 | 9.99239 | -84.21555 | 2976 ft | 8 kts | 69° |
| 2026-04-28 02:56 | 9.99259 | -84.21500 | 2978 ft | 8 kts | 69° |
| 2026-04-28 02:56 | 9.99279 | -84.21448 | 2980 ft | 8 kts | 69° |
| 2026-04-28 02:56 | 9.99298 | -84.21398 | 2982 ft | 8 kts | 69° |
| 2026-04-28 02:56 | 9.99317 | -84.21349 | 2983 ft | 7 kts | 69° |
| 2026-04-28 02:57 | 9.99335 | -84.21302 | 2986 ft | 7 kts | 68° |
| 2026-04-28 02:57 | 9.99352 | -84.21257 | 2988 ft | 7 kts | 68° |
| 2026-04-28 02:57 | 9.99368 | -84.21211 | 2990 ft | 7 kts | 71° |
| 2026-04-28 02:57 | 9.99383 | -84.21166 | 2991 ft | 7 kts | 71° |
| 2026-04-28 02:58 | 9.99398 | -84.21123 | 2993 ft | 7 kts | 71° |
| 2026-04-28 02:58 | 9.99414 | -84.21080 | 2995 ft | 6 kts | 69° |
| 2026-04-28 02:58 | 9.99430 | -84.21038 | 2997 ft | 6 kts | 69° |
| 2026-04-28 02:58 | 9.99445 | -84.20997 | 2999 ft | 6 kts | 69° |
| 2026-04-28 02:59 | 9.99460 | -84.20957 | 3001 ft | 6 kts | 69° |
| 2026-04-28 02:59 | 9.99475 | -84.20918 | 3003 ft | 6 kts | 69° |
| 2026-04-28 02:59 | 9.99489 | -84.20879 | 3005 ft | 6 kts | 69° |
| 2026-04-28 02:59 | 9.99503 | -84.20841 | 3006 ft | 6 kts | 70° |
| 2026-04-28 03:00 | 9.99517 | -84.20804 | 3008 ft | 6 kts | 70° |
| 2026-04-28 03:00 | 9.99530 | -84.20768 | 3009 ft | 5 kts | 70° |
| 2026-04-28 03:00 | 9.99543 | -84.20731 | 3011 ft | 5 kts | 70° |
| 2026-04-28 03:00 | 9.99555 | -84.20696 | 3012 ft | 5 kts | 71° |
| 2026-04-28 03:01 | 9.99567 | -84.20661 | 3013 ft | 5 kts | 70° |
| 2026-04-28 03:01 | 9.99579 | -84.20627 | 3015 ft | 5 kts | 70° |
| 2026-04-28 03:01 | 9.99591 | -84.20594 | 3016 ft | 5 kts | 70° |
| 2026-04-28 03:01 | 9.99604 | -84.20562 | 3017 ft | 5 kts | 66° |
| 2026-04-28 03:02 | 9.99617 | -84.20530 | 3019 ft | 5 kts | 66° |
| 2026-04-28 03:02 | 9.99630 | -84.20500 | 3020 ft | 5 kts | 66° |
| 2026-04-28 03:02 | 9.99643 | -84.20469 | 3021 ft | 5 kts | 68° |
| 2026-04-28 03:02 | 9.99654 | -84.20440 | 3022 ft | 4 kts | 70° |
| 2026-04-28 03:03 | 9.99664 | -84.20411 | 3023 ft | 4 kts | 70° |
| 2026-04-28 03:03 | 9.99674 | -84.20382 | 3024 ft | 4 kts | 70° |
| 2026-04-28 03:03 | 9.99684 | -84.20354 | 3025 ft | 4 kts | 70° |
| 2026-04-28 03:03 | 9.99707 | -84.20338 | 3026 ft | 4 kts | 8° |
| 2026-04-28 03:04 | 9.99738 | -84.20347 | 3026 ft | 5 kts | 338° |
| 2026-04-28 03:04 | 9.99748 | -84.20351 | 3026 ft | 0 kts | 338° |